createdAt,value
2023-01-02T00:01:49.505Z,9.29
2023-01-02T00:04:16.882Z,9.17
2023-01-02T00:06:43.899Z,9.23
2023-01-02T00:09:11.550Z,9.26
2023-01-02T00:11:38.776Z,9.19
2023-01-02T00:14:06.375Z,9.20
2023-01-02T00:16:33.483Z,9.19
2023-01-02T00:19:00.931Z,8.97
2023-01-02T00:21:28.026Z,8.98
2023-01-02T00:23:55.596Z,9.14
2023-01-02T00:26:22.637Z,9.09
2023-01-02T00:28:49.981Z,8.97
2023-01-02T00:31:17.198Z,8.99
2023-01-02T00:33:44.648Z,8.93
2023-01-02T00:36:13.297Z,8.90
2023-01-02T00:38:41.483Z,8.80
2023-01-02T00:41:08.605Z,8.94
2023-01-02T00:43:37.025Z,8.96
2023-01-02T00:46:09.460Z,8.81
2023-01-02T00:48:39.328Z,8.71
2023-01-02T00:51:06.589Z,8.69
2023-01-02T00:53:36.081Z,8.52
2023-01-02T00:56:03.199Z,8.49
2023-01-02T00:58:30.615Z,8.60
2023-01-02T01:00:57.704Z,8.72
2023-01-02T01:03:25.274Z,8.57
2023-01-02T01:05:52.306Z,8.54
2023-01-02T01:08:19.718Z,8.53
2023-01-02T01:10:46.853Z,8.54
2023-01-02T01:13:14.361Z,8.48
2023-01-02T01:15:41.504Z,8.55
2023-01-02T01:18:08.893Z,8.51
2023-01-02T01:20:39.689Z,8.67
2023-01-02T01:23:07.153Z,8.62
2023-01-02T01:25:34.238Z,8.72
2023-01-02T01:28:01.582Z,8.67
2023-01-02T01:30:28.686Z,8.70
2023-01-02T01:32:55.989Z,8.61
2023-01-02T01:35:22.992Z,8.67
2023-01-02T01:37:50.307Z,8.68
2023-01-02T01:40:17.384Z,8.67
2023-01-02T01:42:45.791Z,8.56
2023-01-02T01:45:15.531Z,8.65
2023-01-02T01:47:48.663Z,8.59
2023-01-02T01:50:23.062Z,8.52
2023-01-02T01:53:11.969Z,8.63
2023-01-02T01:55:45.881Z,8.58
2023-01-02T01:58:24.035Z,8.50
2023-01-02T02:00:51.953Z,8.54
2023-01-02T02:03:24.073Z,8.43
2023-01-02T02:05:51.524Z,8.40
2023-01-02T02:08:29.054Z,8.37
2023-01-02T02:10:59.296Z,8.37
2023-01-02T02:13:27.028Z,8.40
2023-01-02T02:16:12.828Z,8.50
2023-01-02T02:19:13.301Z,8.58
2023-01-02T02:21:55.690Z,8.59
2023-01-02T02:24:50.935Z,8.51
2023-01-02T02:27:30.143Z,8.48
2023-01-02T02:30:25.794Z,8.54
2023-01-02T02:33:04.841Z,8.58
2023-01-02T02:35:43.869Z,8.51
2023-01-02T02:38:24.342Z,8.42
2023-01-02T02:41:03.846Z,8.26
2023-01-02T02:43:33.796Z,8.22
2023-01-02T02:46:24.057Z,8.23
2023-01-02T02:48:53.766Z,8.23
2023-01-02T02:51:30.233Z,8.41
2023-01-02T02:54:05.407Z,8.43
2023-01-02T02:56:33.174Z,8.38
2023-01-02T02:59:00.792Z,8.48
2023-01-02T03:01:31.591Z,8.37
2023-01-02T03:03:58.760Z,8.35
2023-01-02T03:06:56.149Z,8.42
2023-01-02T03:09:57.372Z,8.42
2023-01-02T03:12:56.719Z,8.51
2023-01-02T03:15:56.727Z,8.62
2023-01-02T03:18:27.128Z,8.59
2023-01-02T03:21:11.130Z,8.63
2023-01-02T03:23:44.850Z,8.61
2023-01-02T03:26:15.271Z,8.58
2023-01-02T03:28:46.691Z,8.62
2023-01-02T03:31:18.975Z,8.70
2023-01-02T03:34:06.903Z,8.73
2023-01-02T03:36:37.042Z,8.68
2023-01-02T03:39:18.131Z,8.64
2023-01-02T03:41:57.073Z,8.65
2023-01-02T03:44:30.438Z,8.71
2023-01-02T03:46:57.454Z,8.74
2023-01-02T03:49:39.602Z,8.76
2023-01-02T03:52:06.689Z,8.75
2023-01-02T03:54:34.360Z,8.74
2023-01-02T03:57:14.473Z,8.76
2023-01-02T04:00:08.209Z,8.72
2023-01-02T04:03:05.936Z,8.85
2023-01-02T04:05:56.612Z,8.76
2023-01-02T04:08:34.354Z,8.76
2023-01-02T04:11:03.664Z,8.65
2023-01-02T04:13:39.026Z,8.69
2023-01-02T04:16:10.687Z,8.65
2023-01-02T04:18:46.833Z,8.64
2023-01-02T04:21:22.030Z,8.71
2023-01-02T04:24:00.086Z,8.64
2023-01-02T04:26:49.895Z,8.57
2023-01-02T04:29:17.257Z,8.59
2023-01-02T04:32:02.952Z,8.63
2023-01-02T04:34:38.785Z,8.53
2023-01-02T04:37:08.631Z,8.55
2023-01-02T04:39:37.757Z,8.65
2023-01-02T04:42:05.114Z,8.68
2023-01-02T04:44:32.190Z,8.64
2023-01-02T04:46:59.653Z,8.51
2023-01-02T04:49:27.194Z,8.59
2023-01-02T04:51:54.645Z,8.73
2023-01-02T04:54:21.705Z,8.56
2023-01-02T04:56:49.045Z,8.55
2023-01-02T04:59:16.043Z,8.59
2023-01-02T05:02:28.380Z,8.59
2023-01-02T05:04:55.637Z,8.59
2023-01-02T05:07:23.014Z,8.41
2023-01-02T05:09:50.083Z,8.51
2023-01-02T05:12:17.421Z,8.54
2023-01-02T05:14:44.419Z,8.43
2023-01-02T05:17:11.840Z,8.56
2023-01-02T05:19:38.941Z,8.61
2023-01-02T05:22:24.967Z,8.61
2023-01-02T05:24:52.038Z,8.55
2023-01-02T05:27:19.362Z,8.62
2023-01-02T05:29:46.479Z,8.63
2023-01-02T05:32:13.902Z,8.52
2023-01-02T05:34:40.958Z,8.56
2023-01-02T05:37:08.502Z,8.42
2023-01-02T05:39:35.500Z,8.50
2023-01-02T05:42:03.033Z,8.56
2023-01-02T05:44:30.592Z,8.50
2023-01-02T05:46:58.018Z,8.55
2023-01-02T05:49:25.141Z,8.48
2023-01-02T05:51:52.569Z,8.57
2023-01-02T05:54:19.736Z,8.46
2023-01-02T05:56:47.158Z,8.56
2023-01-02T05:59:14.742Z,8.48
2023-01-02T06:01:42.506Z,8.43
2023-01-02T06:04:13.559Z,8.30
2023-01-02T06:06:45.161Z,8.32
2023-01-02T06:09:13.889Z,8.33
2023-01-02T06:11:42.025Z,8.30
2023-01-02T06:14:10.629Z,8.39
2023-01-02T06:16:39.013Z,8.42
2023-01-02T06:19:06.688Z,8.49
2023-01-02T06:21:34.497Z,8.45
2023-01-02T06:24:01.659Z,8.52
2023-01-02T06:26:34.890Z,8.49
2023-01-02T06:29:03.447Z,8.49
2023-01-02T06:31:33.371Z,8.39
2023-01-02T06:34:02.535Z,8.37
2023-01-02T06:36:32.199Z,8.33
2023-01-02T06:38:59.446Z,8.50
2023-01-02T06:41:26.961Z,8.55
2023-01-02T06:43:54.818Z,8.67
2023-01-02T06:46:23.737Z,8.59
2023-01-02T06:48:51.397Z,8.54
2023-01-02T06:51:21.600Z,8.26
2023-01-02T06:53:48.730Z,8.31
2023-01-02T06:56:18.555Z,8.36
2023-01-02T06:58:46.175Z,8.32
2023-01-02T07:01:16.566Z,8.40
2023-01-02T07:03:43.965Z,8.33
2023-01-02T07:06:16.662Z,8.29
2023-01-02T07:08:44.738Z,8.36
2023-01-02T07:11:17.923Z,8.32
2023-01-02T07:13:46.447Z,8.34
2023-01-02T07:16:16.754Z,8.49
2023-01-02T07:18:43.783Z,8.50
2023-01-02T07:21:12.649Z,8.50
2023-01-02T07:23:39.940Z,8.35
2023-01-02T07:26:07.696Z,8.43
2023-01-02T07:28:35.942Z,8.39
2023-01-02T07:31:22.732Z,8.47
2023-01-02T07:33:50.012Z,8.48
2023-01-02T07:36:19.760Z,8.49
2023-01-02T07:38:53.827Z,8.50
2023-01-02T07:41:23.595Z,8.62
2023-01-02T07:43:51.127Z,8.61
2023-01-02T07:46:20.005Z,8.48
2023-01-02T07:48:48.402Z,8.52
2023-01-02T07:51:21.080Z,8.71
2023-01-02T07:53:51.927Z,8.62
2023-01-02T07:56:19.437Z,8.67
2023-01-02T07:58:46.598Z,8.73
2023-01-02T08:01:14.252Z,8.79
2023-01-02T08:03:41.758Z,8.51
2023-01-02T08:06:12.192Z,8.67
2023-01-02T08:08:39.650Z,8.61
2023-01-02T08:11:09.003Z,8.74
2023-01-02T08:13:38.233Z,8.59
2023-01-02T08:16:08.632Z,8.71
2023-01-02T08:18:35.906Z,8.53
2023-01-02T08:21:04.420Z,8.56
2023-01-02T08:23:32.044Z,8.70
2023-01-02T08:26:04.453Z,8.83
2023-01-02T08:28:32.268Z,8.69
2023-01-02T08:31:00.512Z,8.68
2023-01-02T08:33:27.971Z,8.69
2023-01-02T08:35:56.550Z,8.76
2023-01-02T08:38:23.669Z,8.73
2023-01-02T08:40:51.239Z,8.77
2023-01-02T08:43:18.337Z,8.70
2023-01-02T08:45:45.850Z,8.82
2023-01-02T08:48:20.869Z,8.72
2023-01-02T08:50:50.106Z,8.74
2023-01-02T08:53:17.970Z,8.84
2023-01-02T08:55:45.505Z,8.95
2023-01-02T08:58:12.681Z,8.86
2023-01-02T09:00:40.116Z,8.85
2023-01-02T09:03:07.385Z,8.93
2023-01-02T09:05:34.861Z,8.98
2023-01-02T09:08:02.404Z,8.94
2023-01-02T09:10:29.825Z,9.10
2023-01-02T09:12:58.731Z,9.05
2023-01-02T09:15:26.225Z,8.87
2023-01-02T09:17:53.365Z,8.94
2023-01-02T09:20:20.804Z,9.12
2023-01-02T09:22:47.948Z,9.11
2023-01-02T09:25:22.043Z,9.17
2023-01-02T09:27:52.120Z,9.21
2023-01-02T09:30:21.541Z,9.19
2023-01-02T09:32:51.107Z,9.22
2023-01-02T09:35:19.547Z,9.22
2023-01-02T09:37:48.114Z,9.27
2023-01-02T09:40:15.563Z,9.30
2023-01-02T09:42:43.895Z,9.37
2023-01-02T09:45:12.535Z,9.41
2023-01-02T09:47:41.525Z,9.44
2023-01-02T09:50:18.829Z,9.50
2023-01-02T09:52:52.622Z,9.47
2023-01-02T09:55:35.829Z,9.53
2023-01-02T09:58:10.582Z,9.68
2023-01-02T10:00:38.936Z,9.65
2023-01-02T10:03:35.866Z,9.55
2023-01-02T10:06:08.618Z,9.59
2023-01-02T10:09:03.558Z,9.63
2023-01-02T10:11:49.660Z,9.68
2023-01-02T10:14:51.371Z,9.61
2023-01-02T10:17:20.050Z,9.61
2023-01-02T10:19:56.477Z,9.63
2023-01-02T10:22:36.807Z,9.71
2023-01-02T10:25:22.237Z,9.99
2023-01-02T10:28:12.876Z,9.84
2023-01-02T10:30:47.531Z,9.93
2023-01-02T10:33:21.621Z,10.02
2023-01-02T10:35:54.469Z,10.09
2023-01-02T10:38:21.942Z,10.09
2023-01-02T10:40:50.998Z,10.17
2023-01-02T10:43:19.382Z,10.24
2023-01-02T10:45:46.466Z,10.24
2023-01-02T10:48:14.135Z,10.29
2023-01-02T10:50:48.033Z,10.23
2023-01-02T10:53:37.438Z,10.28
2023-01-02T10:56:11.990Z,10.35
2023-01-02T10:58:48.760Z,10.41
2023-01-02T11:01:19.239Z,10.59
2023-01-02T11:03:50.438Z,10.60
2023-01-02T11:06:35.098Z,10.63
2023-01-02T11:09:26.158Z,10.73
2023-01-02T11:12:00.619Z,10.62
2023-01-02T11:14:32.153Z,10.72
2023-01-02T11:17:15.131Z,10.69
2023-01-02T11:19:55.041Z,10.71
2023-01-02T11:22:36.171Z,10.79
2023-01-02T11:25:07.594Z,10.84
2023-01-02T11:27:43.813Z,10.87
2023-01-02T11:30:30.050Z,10.98
2023-01-02T11:33:14.669Z,10.98
2023-01-02T11:35:58.817Z,11.05
2023-01-02T11:38:30.642Z,10.99
2023-01-02T11:41:01.731Z,11.14
2023-01-02T11:43:51.845Z,11.08
2023-01-02T11:46:22.384Z,11.15
2023-01-02T11:48:53.813Z,11.21
2023-01-02T11:51:22.309Z,11.13
2023-01-02T11:53:54.204Z,11.17
2023-01-02T11:56:33.621Z,11.31
2023-01-02T11:59:06.314Z,11.37
2023-01-02T12:01:44.839Z,11.32
2023-01-02T12:04:14.063Z,11.38
2023-01-02T12:07:02.529Z,11.38
2023-01-02T12:09:51.105Z,11.40
2023-01-02T12:12:49.627Z,11.33
2023-01-02T12:16:02.381Z,11.43
2023-01-02T12:18:44.763Z,11.45
2023-01-02T12:21:27.837Z,11.36
2023-01-02T12:24:23.513Z,11.53
2023-01-02T12:27:03.508Z,11.35
2023-01-02T12:29:46.166Z,11.41
2023-01-02T12:32:38.426Z,11.52
2023-01-02T12:35:15.203Z,11.48
2023-01-02T12:37:56.570Z,11.46
2023-01-02T12:40:43.745Z,11.48
2023-01-02T12:43:29.579Z,11.48
2023-01-02T12:46:11.092Z,11.60
2023-01-02T12:48:53.762Z,11.53
2023-01-02T12:51:42.878Z,11.59
2023-01-02T12:54:31.641Z,11.58
2023-01-02T12:57:28.535Z,11.56
2023-01-02T13:00:07.806Z,11.49
2023-01-02T13:02:53.957Z,11.52
2023-01-02T13:05:28.472Z,11.60
2023-01-02T13:08:15.198Z,11.58
2023-01-02T13:10:42.824Z,11.62
2023-01-02T13:13:13.581Z,11.68
2023-01-02T13:15:45.778Z,11.71
2023-01-02T13:19:00.501Z,11.65
2023-01-02T13:21:49.785Z,11.68
2023-01-02T13:24:23.117Z,11.69
2023-01-02T13:26:52.996Z,11.75
2023-01-02T13:29:27.573Z,11.76
2023-01-02T13:31:56.200Z,11.74
2023-01-02T13:34:31.904Z,11.79
2023-01-02T13:37:06.803Z,11.77
2023-01-02T13:39:40.354Z,11.89
2023-01-02T13:42:46.879Z,11.89
2023-01-02T13:45:20.560Z,11.74
2023-01-02T13:47:53.116Z,11.79
2023-01-02T13:50:40.836Z,11.82
2023-01-02T13:53:10.807Z,11.73
2023-01-02T13:55:41.199Z,11.69
2023-01-02T13:58:18.280Z,11.76
2023-01-02T14:00:54.808Z,11.76
2023-01-02T14:03:25.472Z,11.71
2023-01-02T14:06:03.634Z,11.67
2023-01-02T14:08:40.383Z,11.91
2023-01-02T14:11:30.893Z,11.78
2023-01-02T14:14:27.407Z,11.74
2023-01-02T14:17:12.907Z,11.73
2023-01-02T14:19:40.449Z,11.66
2023-01-02T14:22:15.285Z,11.62
2023-01-02T14:24:49.594Z,11.61
2023-01-02T14:27:27.705Z,11.65
2023-01-02T14:30:07.613Z,11.69
2023-01-02T14:32:35.351Z,11.69
2023-01-02T14:35:25.717Z,11.70
2023-01-02T14:38:26.409Z,11.69
2023-01-02T14:40:53.802Z,11.61
2023-01-02T14:43:36.580Z,11.65
2023-01-02T14:46:15.145Z,11.70
2023-01-02T14:48:51.931Z,11.66
2023-01-02T14:51:30.170Z,11.89
2023-01-02T14:54:12.018Z,11.77
2023-01-02T14:56:42.619Z,11.68
2023-01-02T14:59:18.716Z,11.68
2023-01-02T15:01:51.409Z,11.79
2023-01-02T15:04:28.898Z,11.76
2023-01-02T15:07:33.126Z,11.93
2023-01-02T15:10:14.953Z,11.81
2023-01-02T15:13:06.434Z,11.83
2023-01-02T15:15:41.894Z,11.95
2023-01-02T15:18:22.305Z,11.99
2023-01-02T15:20:51.058Z,11.92
2023-01-02T15:23:22.587Z,11.81
2023-01-02T15:25:50.638Z,12.00
2023-01-02T15:28:23.793Z,12.06
2023-01-02T15:31:03.671Z,12.06
2023-01-02T15:33:33.427Z,11.95
2023-01-02T15:36:10.545Z,11.96
2023-01-02T15:38:37.956Z,11.86
2023-01-02T15:41:05.625Z,11.91
2023-01-02T15:43:53.474Z,11.95
2023-01-02T15:46:21.548Z,11.85
2023-01-02T15:48:49.758Z,11.85
2023-01-02T15:51:20.603Z,11.88
2023-01-02T15:54:13.799Z,11.79
2023-01-02T15:56:42.447Z,11.88
2023-01-02T15:59:34.190Z,11.88
2023-01-02T16:02:03.226Z,11.86
2023-01-02T16:04:33.052Z,11.74
2023-01-02T16:07:21.351Z,11.91
2023-01-02T16:09:54.960Z,11.91
2023-01-02T16:12:24.127Z,11.88
2023-01-02T16:14:56.615Z,11.98
2023-01-02T16:17:32.388Z,11.83
2023-01-02T16:20:04.032Z,11.81
2023-01-02T16:23:00.473Z,11.95
2023-01-02T16:25:32.952Z,11.73
2023-01-02T16:28:34.626Z,11.80
2023-01-02T16:31:08.432Z,11.83
2023-01-02T16:33:36.106Z,11.75
2023-01-02T16:36:15.391Z,11.89
2023-01-02T16:38:54.171Z,11.82
2023-01-02T16:41:42.173Z,11.94
2023-01-02T16:44:15.397Z,11.82
2023-01-02T16:46:50.296Z,11.91
2023-01-02T16:49:21.532Z,11.93
2023-01-02T16:51:52.027Z,11.83
2023-01-02T16:54:20.159Z,11.70
2023-01-02T16:56:48.909Z,11.66
2023-01-02T16:59:17.462Z,11.84
2023-01-02T17:01:45.243Z,11.81
2023-01-02T17:04:14.107Z,11.81
2023-01-02T17:06:41.441Z,11.94
2023-01-02T17:09:09.012Z,11.76
2023-01-02T17:11:37.578Z,11.91
2023-01-02T17:14:05.128Z,11.94
2023-01-02T17:16:32.532Z,11.76
2023-01-02T17:19:00.692Z,11.79
2023-01-02T17:21:32.672Z,11.94
2023-01-02T17:24:00.764Z,11.87
2023-01-02T17:26:28.138Z,11.79
2023-01-02T17:28:55.645Z,11.91
2023-01-02T17:31:26.028Z,11.85
2023-01-02T17:33:54.132Z,11.95
2023-01-02T17:36:22.907Z,12.01
2023-01-02T17:38:50.793Z,12.03
2023-01-02T17:41:18.925Z,12.00
2023-01-02T17:44:02.096Z,11.87
2023-01-02T17:47:09.419Z,11.90
2023-01-02T17:49:21.247Z,11.90
2023-01-02T17:51:49.102Z,11.73
2023-01-02T17:54:16.685Z,11.76
2023-01-02T17:56:44.298Z,11.82
2023-01-02T17:59:14.129Z,11.68
2023-01-02T18:01:41.660Z,11.78
2023-01-02T18:04:09.607Z,11.80
2023-01-02T18:06:37.017Z,11.69
2023-01-02T18:09:05.782Z,11.63
2023-01-02T18:11:34.809Z,11.76
2023-01-02T18:14:03.860Z,11.78
2023-01-02T18:16:37.755Z,11.72
2023-01-02T18:19:13.310Z,11.76
2023-01-02T18:21:41.179Z,12.00
2023-01-02T18:24:14.712Z,12.06
2023-01-02T18:26:42.250Z,11.93
2023-01-02T18:29:22.737Z,12.10
2023-01-02T18:31:51.564Z,11.99
2023-01-02T18:37:26.053Z,12.13
2023-01-02T18:39:55.472Z,12.15
2023-01-02T18:42:28.828Z,12.17
2023-01-02T18:44:59.565Z,12.21
2023-01-02T18:47:34.748Z,12.18
2023-01-02T18:50:32.035Z,12.19
2023-01-02T18:53:07.847Z,12.27
2023-01-02T18:55:40.307Z,12.24
2023-01-02T18:58:37.287Z,12.09
2023-01-02T19:01:25.792Z,12.15
2023-01-02T19:04:00.802Z,12.17
2023-01-02T19:06:29.603Z,12.11
2023-01-02T19:09:10.829Z,11.91
2023-01-02T19:11:57.326Z,12.05
2023-01-02T19:14:29.981Z,11.99
2023-01-02T19:17:14.028Z,11.99
2023-01-02T19:19:41.728Z,12.05
2023-01-02T19:22:32.462Z,12.02
2023-01-02T19:25:08.960Z,12.01
2023-01-02T19:27:38.352Z,12.16
2023-01-02T19:30:23.453Z,12.22
2023-01-02T19:32:51.349Z,12.08
2023-01-02T19:35:39.904Z,12.14
2023-01-02T19:38:31.491Z,11.99
2023-01-02T19:40:59.077Z,12.14
2023-01-02T19:43:28.030Z,12.22
2023-01-02T19:45:57.190Z,12.14
2023-01-02T19:48:24.793Z,12.14
2023-01-02T19:50:52.571Z,12.16
2023-01-02T19:53:20.301Z,12.21
2023-01-02T19:55:48.053Z,12.16
2023-01-02T19:58:15.804Z,12.29
2023-01-02T20:00:43.942Z,12.23
2023-01-02T20:03:11.680Z,12.24
2023-01-02T20:05:39.869Z,12.18
2023-01-02T20:08:07.641Z,12.29
2023-01-02T20:10:35.222Z,12.15
2023-01-02T20:13:02.859Z,12.12
2023-01-02T20:15:30.207Z,12.18
2023-01-02T20:17:59.749Z,12.12
2023-01-02T20:20:29.881Z,12.02
2023-01-02T20:22:57.642Z,11.49
2023-01-02T20:25:26.723Z,11.06
2023-01-02T20:27:56.017Z,10.95
2023-01-02T20:30:25.221Z,10.92
2023-01-02T20:32:54.583Z,10.80
2023-01-02T20:35:22.615Z,10.59
2023-01-02T20:37:50.289Z,10.40
2023-01-02T20:40:17.968Z,10.30
2023-01-02T20:42:45.975Z,9.99
2023-01-02T20:45:13.490Z,9.98
2023-01-02T20:47:40.898Z,9.79
2023-01-02T20:50:08.939Z,9.78
2023-01-02T20:52:36.267Z,9.65
2023-01-02T20:55:04.400Z,9.64
2023-01-02T20:57:31.678Z,9.63
2023-01-02T20:59:59.235Z,9.43
2023-01-02T21:02:26.893Z,9.55
2023-01-02T21:04:54.698Z,9.54
2023-01-02T21:07:21.844Z,9.56
2023-01-02T21:09:49.376Z,9.47
2023-01-02T21:12:35.186Z,9.44
2023-01-02T21:15:02.911Z,9.44
2023-01-02T21:17:35.008Z,9.38
2023-01-02T21:20:02.699Z,9.18
2023-01-02T21:22:29.939Z,9.19
2023-01-02T21:24:57.511Z,9.11
2023-01-02T21:27:24.623Z,9.17
2023-01-02T21:29:52.481Z,9.11
2023-01-02T21:32:19.658Z,9.00
2023-01-02T21:34:47.382Z,9.03
2023-01-02T21:37:14.662Z,8.93
2023-01-02T21:39:42.621Z,8.85
2023-01-02T21:42:15.885Z,9.06
2023-01-02T21:44:47.329Z,8.92
2023-01-02T21:47:18.251Z,8.95
2023-01-02T21:49:46.070Z,8.99
2023-01-02T21:52:13.677Z,9.07
2023-01-02T21:54:41.191Z,9.03
2023-01-02T21:57:08.545Z,9.02
2023-01-02T21:59:36.849Z,9.00
2023-01-02T22:02:06.764Z,8.89
2023-01-02T22:04:35.412Z,8.83
2023-01-02T22:07:30.812Z,8.83
2023-01-02T22:09:51.436Z,8.74
2023-01-02T22:12:18.804Z,8.87
2023-01-02T22:14:46.442Z,8.81
2023-01-02T22:17:13.935Z,8.75
2023-01-02T22:19:41.874Z,8.78
2023-01-02T22:22:10.180Z,8.81
2023-01-02T22:24:43.999Z,8.62
2023-01-02T22:27:14.850Z,8.66
2023-01-02T22:30:19.550Z,8.65
2023-01-02T22:32:33.790Z,8.68
2023-01-02T22:35:04.098Z,8.70
2023-01-02T22:37:31.779Z,8.67
2023-01-02T22:40:01.637Z,8.62
2023-01-02T22:43:00.371Z,8.56
2023-01-02T22:45:33.329Z,8.39
2023-01-02T22:48:17.451Z,8.44
2023-01-02T22:50:46.333Z,8.45
2023-01-02T22:53:27.498Z,8.41
2023-01-02T22:55:55.465Z,8.49
2023-01-02T22:58:23.073Z,8.43
2023-01-02T23:01:03.270Z,8.45
2023-01-02T23:03:38.556Z,8.37
2023-01-02T23:06:06.445Z,8.42
2023-01-02T23:08:33.919Z,8.43
2023-01-02T23:11:01.552Z,8.51
2023-01-02T23:13:28.824Z,8.41
2023-01-02T23:16:14.855Z,8.56
2023-01-02T23:19:00.762Z,8.33
2023-01-02T23:21:30.974Z,8.42
2023-01-02T23:23:59.278Z,8.38
2023-01-02T23:26:32.400Z,8.40
2023-01-02T23:29:08.317Z,8.35
2023-01-02T23:31:38.751Z,8.29
2023-01-02T23:34:06.908Z,8.18
2023-01-02T23:36:35.068Z,8.04
2023-01-02T23:39:03.908Z,8.11
2023-01-02T23:41:31.514Z,8.05
2023-01-02T23:43:58.690Z,8.04
2023-01-02T23:46:26.355Z,8.00
2023-01-02T23:48:53.520Z,7.98
2023-01-02T23:51:21.068Z,7.97
2023-01-02T23:53:48.187Z,7.95
2023-01-02T23:56:30.663Z,7.89
2023-01-02T23:58:59.458Z,7.86
